Time;durP1;ratioP1;P1;durP2;ratioP2;P2;SDS_P1;SDS_P2;PMS_P1;PMS_P2;Temp;Humidity;BMP_temperature;BMP_pressure;BME280_temperature;BME280_humidity;BME280_pressure;Samples;Min_cycle;Max_cycle;Signal;HPM_P1;HPM_P2
2021/12/09 00:01:06;;;;;;;19.50;11.90;;;24.20;50.20;;;;;;214315;1313;238219;-52
2021/12/09 00:06:12;;;;;;;14.80;11.20;;;24.10;50.10;;;;;;214487;1313;24367;-52
2021/12/09 00:11:16;;;;;;;17.10;11.70;;;24.20;50.10;;;;;;214567;1313;25278;-50
2021/12/09 00:16:23;;;;;;;16.70;10.90;;;24.20;49.80;;;;;;214422;1313;22610;-52
2021/12/09 00:21:26;;;;;;;17.20;11.10;;;24.20;50.00;;;;;;214431;1313;25436;-53
2021/12/09 00:26:30;;;;;;;18.20;11.40;;;24.30;49.70;;;;;;214391;1306;24312;-54
2021/12/09 00:31:34;;;;;;;16.60;11.20;;;24.30;49.50;;;;;;214653;1314;22576;-54
2021/12/09 00:36:43;;;;;;;17.80;11.80;;;24.30;49.50;;;;;;214349;1316;22555;-50
2021/12/09 00:41:46;;;;;;;17.40;10.70;;;24.30;49.60;;;;;;214472;1315;24403;-54
2021/12/09 00:46:50;;;;;;;16.10;10.50;;;24.30;49.70;;;;;;214359;1314;24277;-53
2021/12/09 00:51:54;;;;;;;14.70;11.30;;;24.20;49.70;;;;;;214406;1315;22651;-53
2021/12/09 00:57:01;;;;;;;16.50;11.30;;;24.20;49.50;;;;;;214382;1314;22583;-51
2021/12/09 01:02:06;;;;;;;15.60;11.50;;;24.20;49.60;;;;;;214496;1313;25409;-55
2021/12/09 01:07:10;;;;;;;17.20;11.40;;;24.10;49.90;;;;;;214666;1313;25472;-55
2021/12/09 01:12:14;;;;;;;14.60;10.10;;;24.10;49.40;;;;;;214490;1312;22587;-52
2021/12/09 01:17:19;;;;;;;16.90;11.50;;;24.20;49.40;;;;;;214492;1313;24533;-52
2021/12/09 01:22:29;;;;;;;17.60;11.70;;;24.20;49.30;;;;;;214546;1313;25274;-54
2021/12/09 01:27:35;;;;;;;;;;;24.10;49.40;;;;;;214520;1313;23971;-54
2021/12/09 01:32:44;;;;;;;16.00;11.00;;;24.20;49.20;;;;;;214438;1309;22592;-55
2021/12/09 01:37:54;;;;;;;15.30;11.40;;;24.10;49.30;;;;;;214485;1315;25400;-54
2021/12/09 01:42:58;;;;;;;15.90;10.90;;;24.20;49.70;;;;;;214559;1313;24413;-51
2021/12/09 01:48:07;;;;;;;18.20;10.40;;;24.30;48.90;;;;;;214491;1314;25404;-54
2021/12/09 01:53:10;;;;;;;15.20;10.70;;;24.30;49.10;;;;;;214474;1314;22589;-53
2021/12/09 01:58:16;;;;;;;16.90;11.50;;;24.40;48.90;;;;;;214333;1307;22638;-52
2021/12/09 02:03:20;;;;;;;14.60;10.60;;;24.40;48.30;;;;;;214671;1311;22645;-52
2021/12/09 02:08:26;;;;;;;14.30;10.10;;;24.40;48.50;;;;;;214652;1306;25082;-54
2021/12/09 02:13:30;;;;;;;14.80;10.30;;;24.40;48.40;;;;;;214562;1313;22572;-51
2021/12/09 02:18:34;;;;;;;15.60;10.40;;;24.30;48.30;;;;;;214540;1313;22582;-54
2021/12/09 02:23:45;;;;;;;13.20;9.90;;;24.40;48.30;;;;;;214487;1315;22696;-51
2021/12/09 02:28:52;;;;;;;13.30;10.30;;;24.30;48.40;;;;;;214501;1312;24247;-54
2021/12/09 02:33:57;;;;;;;13.80;10.20;;;24.30;48.70;;;;;;214615;1313;24290;-51
2021/12/09 02:39:00;;;;;;;15.40;11.10;;;24.30;48.40;;;;;;214548;1313;25249;-52
2021/12/09 02:44:08;;;;;;;13.40;10.00;;;24.30;48.30;;;;;;214698;1312;24319;-51
2021/12/09 02:49:19;;;;;;;13.80;10.70;;;24.30;48.30;;;;;;214616;1314;23406;-55
2021/12/09 02:54:25;;;;;;;14.00;10.50;;;24.30;48.20;;;;;;214618;1314;23886;-52
2021/12/09 02:59:31;;;;;;;13.50;10.00;;;24.20;48.30;;;;;;214483;1313;22587;-52
2021/12/09 03:04:48;;;;;;;13.10;9.90;;;24.20;48.10;;;;;;214411;1314;22565;-56
2021/12/09 03:09:59;;;;;;;14.50;9.90;;;24.30;48.20;;;;;;214498;1314;22584;-53
2021/12/09 03:15:04;;;;;;;13.20;9.70;;;24.30;48.20;;;;;;214503;1314;25285;-55
2021/12/09 03:20:10;;;;;;;14.10;9.90;;;24.30;48.10;;;;;;214387;1309;22574;-54
2021/12/09 03:25:16;;;;;;;14.00;9.80;;;24.40;47.70;;;;;;214378;1316;22696;-52
2021/12/09 03:30:20;;;;;;;12.40;9.50;;;24.50;47.50;;;;;;214554;1314;25448;-52
2021/12/09 03:35:24;;;;;;;12.40;9.30;;;24.40;47.10;;;;;;214669;1311;22662;-52
2021/12/09 03:40:28;;;;;;;12.70;9.90;;;24.30;48.00;;;;;;214376;1315;24452;-52
2021/12/09 03:45:32;;;;;;;14.30;10.90;;;24.10;48.10;;;;;;214495;1315;25572;-54
2021/12/09 03:50:37;;;;;;;11.40;9.40;;;23.90;48.30;;;;;;214616;1307;22568;-52
2021/12/09 03:55:40;;;;;;;12.40;9.80;;;23.60;48.70;;;;;;214583;1307;24309;-52
2021/12/09 04:00:45;;;;;;;14.40;10.00;;;23.50;48.90;;;;;;214532;1314;24365;-52
2021/12/09 04:05:49;;;;;;;13.90;10.40;;;23.40;49.30;;;;;;214461;1315;24302;-52
2021/12/09 04:10:53;;;;;;;13.10;9.70;;;23.20;49.70;;;;;;214468;1315;23375;-53
2021/12/09 04:15:57;;;;;;;14.70;11.00;;;23.10;49.70;;;;;;214451;1314;25665;-52
2021/12/09 04:21:01;;;;;;;14.70;10.30;;;22.90;49.80;;;;;;214594;1314;22817;-53
2021/12/09 04:26:08;;;;;;;12.70;10.50;;;22.80;50.40;;;;;;214494;1314;22646;-50
2021/12/09 04:31:12;;;;;;;14.10;10.40;;;22.80;50.20;;;;;;214426;1313;23097;-52
2021/12/09 04:36:18;;;;;;;13.30;10.00;;;22.70;50.30;;;;;;214521;1314;25717;-52
2021/12/09 04:41:22;;;;;;;14.80;10.30;;;22.60;50.60;;;;;;214465;1315;22862;-50
2021/12/09 04:46:26;;;;;;;13.60;9.70;;;22.50;50.60;;;;;;214501;1313;25326;-52
2021/12/09 04:51:29;;;;;;;14.60;10.20;;;22.60;50.30;;;;;;214521;1313;25153;-52
2021/12/09 04:56:35;;;;;;;12.70;9.40;;;23.00;49.50;;;;;;214553;1312;24336;-51
2021/12/09 05:01:47;;;;;;;12.80;10.00;;;23.30;48.80;;;;;;214770;1312;25374;-55
2021/12/09 05:06:51;;;;;;;13.40;10.40;;;23.50;48.60;;;;;;214735;1312;25400;-54
2021/12/09 05:11:55;;;;;;;13.00;9.60;;;23.70;48.20;;;;;;214501;1311;22824;-52
2021/12/09 05:17:00;;;;;;;13.00;10.30;;;23.80;47.60;;;;;;214480;1314;22559;-51
2021/12/09 05:22:04;;;;;;;14.40;10.50;;;23.80;47.60;;;;;;214462;1313;22634;-53
2021/12/09 05:27:11;;;;;;;13.10;10.10;;;23.80;47.40;;;;;;214505;1314;24244;-52
2021/12/09 05:32:17;;;;;;;12.50;9.20;;;23.80;47.50;;;;;;214498;1314;23155;-54
2021/12/09 05:37:23;;;;;;;11.90;9.40;;;23.80;47.30;;;;;;214459;1314;22666;-51
2021/12/09 05:42:27;;;;;;;14.60;9.50;;;23.80;47.30;;;;;;214633;1313;25377;-54
2021/12/09 05:47:32;;;;;;;14.30;10.40;;;23.80;47.50;;;;;;214709;1313;22546;-52
2021/12/09 05:52:41;;;;;;;13.10;10.30;;;23.80;47.30;;;;;;214697;1313;25207;-55
2021/12/09 05:57:47;;;;;;;13.20;10.00;;;23.90;47.10;;;;;;214852;1313;23985;-55
2021/12/09 06:02:53;;;;;;;12.50;9.20;;;23.90;47.00;;;;;;214721;1314;24297;-53
2021/12/09 06:07:56;;;;;;;13.30;10.00;;;23.90;47.00;;;;;;214406;1309;22679;-53
2021/12/09 06:13:00;;;;;;;13.00;9.60;;;23.90;47.00;;;;;;214512;1313;22596;-51
2021/12/09 06:18:07;;;;;;;13.90;10.20;;;23.90;46.90;;;;;;214586;1312;23590;-55
2021/12/09 06:23:11;;;;;;;14.90;10.10;;;24.00;46.80;;;;;;214643;1309;22634;-53
2021/12/09 06:28:19;;;;;;;13.60;9.90;;;24.00;47.00;;;;;;214413;1313;22577;-53
2021/12/09 06:33:23;;;;;;;12.70;9.60;;;24.00;46.90;;;;;;214680;1311;24274;-53
2021/12/09 06:38:27;;;;;;;12.40;9.20;;;24.10;46.50;;;;;;214423;1313;22564;-54
2021/12/09 06:43:31;;;;;;;12.00;9.10;;;24.30;46.40;;;;;;214470;1306;23084;-54
2021/12/09 06:48:35;;;;;;;13.70;10.10;;;24.20;46.10;;;;;;214470;1313;22597;-50
2021/12/09 06:53:39;;;;;;;12.90;9.30;;;24.20;46.30;;;;;;214591;1313;25444;-52
2021/12/09 06:58:43;;;;;;;12.30;9.30;;;24.20;46.70;;;;;;214494;1313;22572;-54
2021/12/09 07:03:47;;;;;;;13.80;9.90;;;24.20;46.30;;;;;;214589;1306;24325;-51
2021/12/09 07:08:53;;;;;;;22.90;10.60;;;24.10;46.10;;;;;;214418;1312;26662;-52
2021/12/09 07:13:57;;;;;;;14.00;10.00;;;24.30;46.80;;;;;;214536;1314;25446;-54
2021/12/09 07:19:01;;;;;;;14.40;10.00;;;24.20;46.90;;;;;;214545;1313;22583;-51
2021/12/09 07:24:05;;;;;;;15.10;10.30;;;24.20;47.10;;;;;;214323;1312;22657;-50
2021/12/09 07:29:09;;;;;;;17.30;11.30;;;24.30;47.40;;;;;;214421;1312;24311;-53
2021/12/09 07:34:13;;;;;;;20.40;11.80;;;24.30;48.00;;;;;;214403;1314;25506;-50
2021/12/09 07:39:17;;;;;;;21.40;11.40;;;24.20;48.50;;;;;;214434;1313;22582;-52
2021/12/09 07:44:20;;;;;;;21.90;11.60;;;24.10;48.80;;;;;;214534;1311;25244;-51
2021/12/09 07:49:26;;;;;;;17.00;11.20;;;24.00;48.90;;;;;;214607;1312;24285;-50
2021/12/09 07:54:32;;;;;;;19.90;12.10;;;23.80;49.10;;;;;;214433;1309;22569;-51
2021/12/09 07:59:36;;;;;;;24.20;10.50;;;23.80;50.20;;;;;;214276;1306;158192;-55
2021/12/09 08:04:40;;;;;;;18.60;10.60;;;23.60;49.90;;;;;;214492;1314;24483;-53
2021/12/09 08:09:53;;;;;;;20.30;11.10;;;23.30;50.30;;;;;;214459;1307;22565;-53
2021/12/09 08:15:07;;;;;;;18.30;10.70;;;23.20;50.60;;;;;;214554;1313;22548;-56
2021/12/09 08:20:14;;;;;;;18.90;10.40;;;23.10;51.20;;;;;;214499;1314;24806;-51
2021/12/09 08:25:25;;;;;;;22.60;11.90;;;23.00;51.10;;;;;;214567;1314;22552;-51
2021/12/09 08:30:29;;;;;;;21.50;11.30;;;22.90;51.50;;;;;;214754;1312;22753;-51
2021/12/09 08:36:02;;;;;;;19.40;11.20;;;22.90;51.60;;;;;;214421;1316;22614;-53
2021/12/09 08:41:07;;;;;;;17.80;12.10;;;22.70;51.30;;;;;;215618;1313;22573;-53
2021/12/09 08:46:11;;;;;;;16.30;11.10;;;22.60;51.20;;;;;;214521;1313;25611;-52
2021/12/09 08:51:19;;;;;;;18.60;12.20;;;22.60;51.20;;;;;;214452;1307;22626;-51
2021/12/09 08:56:23;;;;;;;17.10;12.40;;;22.50;51.20;;;;;;214563;1313;22587;-51
2021/12/09 09:01:26;;;;;;;17.50;11.40;;;22.40;51.10;;;;;;214361;1314;25441;-53
2021/12/09 09:06:32;;;;;;;19.00;11.60;;;22.30;51.50;;;;;;214403;1313;24298;-55
2021/12/09 09:11:35;;;;;;;18.20;11.50;;;22.30;51.10;;;;;;214510;1315;22555;-53
2021/12/09 09:16:39;;;;;;;18.40;12.10;;;22.60;50.00;;;;;;214367;1313;22589;-51
2021/12/09 09:21:44;;;;;;;21.60;11.60;;;23.00;49.10;;;;;;214379;1312;25447;-53
2021/12/09 09:26:58;;;;;;;16.50;12.50;;;23.20;48.70;;;;;;214372;1313;25448;-55
2021/12/09 09:32:02;;;;;;;17.70;10.90;;;23.40;48.00;;;;;;214439;1313;22564;-55
2021/12/09 09:37:06;;;;;;;16.30;11.00;;;23.50;47.80;;;;;;214545;1312;27133;-51
2021/12/09 09:47:17;;;;;;;16.80;11.00;;;23.60;47.10;;;;;;214417;1313;22635;-54
2021/12/09 09:52:21;;;;;;;19.80;11.50;;;23.60;47.20;;;;;;214437;1312;24329;-52
2021/12/09 09:57:25;;;;;;;15.30;10.20;;;23.70;47.00;;;;;;214398;1311;22723;-52
2021/12/09 10:02:33;;;;;;;19.50;11.10;;;23.70;47.00;;;;;;214441;1312;24284;-55
2021/12/09 10:07:39;;;;;;;14.80;10.10;;;23.70;47.10;;;;;;214494;1306;22554;-50
2021/12/09 10:13:03;;;;;;;18.10;10.70;;;23.80;46.60;;;;;;214361;1307;22587;-53
2021/12/09 10:18:13;;;;;;;16.90;11.00;;;23.80;46.70;;;;;;214504;1309;25192;-53
2021/12/09 10:23:24;;;;;;;17.80;11.40;;;23.80;46.70;;;;;;214217;1312;24465;-53
2021/12/09 10:28:28;;;;;;;15.70;10.80;;;23.80;46.70;;;;;;214224;1309;24854;-52
2021/12/09 10:34:11;;;;;;;14.40;11.30;;;23.80;46.60;;;;;;214162;1307;22680;-52
2021/12/09 10:39:22;;;;;;;17.30;12.10;;;23.90;47.30;;;;;;214340;1310;22771;-50
2021/12/09 10:44:44;;;;;;;16.70;10.70;;;23.80;47.10;;;;;;214563;1315;22645;-52
2021/12/09 10:50:03;;;;;;;15.00;11.00;;;23.90;46.60;;;;;;214675;1314;25400;-54
2021/12/09 10:55:12;;;;;;;14.80;10.80;;;23.90;46.70;;;;;;214964;1315;22567;-55
2021/12/09 11:00:23;;;;;;;13.50;10.80;;;23.90;46.90;;;;;;214691;1314;25511;-55
2021/12/09 11:05:38;;;;;;;14.90;10.60;;;23.90;47.00;;;;;;214511;1316;22570;-54
2021/12/09 11:10:47;;;;;;;15.60;11.20;;;24.00;46.70;;;;;;214480;1310;25583;-55
2021/12/09 11:15:57;;;;;;;15.70;11.50;;;24.10;46.50;;;;;;214413;1313;25429;-55
2021/12/09 11:21:08;;;;;;;15.90;11.30;;;24.10;46.70;;;;;;214404;1312;22580;-55
2021/12/09 11:31:58;;;;;;;16.60;11.40;;;24.10;46.70;;;;;;214272;1314;24346;-56
2021/12/09 11:37:20;;;;;;;17.30;12.70;;;24.00;46.30;;;;;;214649;1315;22666;-54
2021/12/09 11:42:33;;;;;;;14.40;10.30;;;24.00;46.30;;;;;;214573;1316;24277;-54
2021/12/09 11:47:45;;;;;;;14.40;11.00;;;23.90;46.30;;;;;;214363;1316;22573;-51
2021/12/09 11:53:05;;;;;;;13.80;10.50;;;23.90;46.30;;;;;;214346;1315;22577;-56
2021/12/09 11:58:18;;;;;;;14.70;10.70;;;23.90;46.20;;;;;;214331;1314;26690;-56
2021/12/09 12:14:45;;;;;;;14.70;11.30;;;23.90;45.80;;;;;;214493;1313;26815;-55
2021/12/09 12:20:34;;;;;;;15.60;11.30;;;23.90;45.90;;;;;;214643;1313;25351;-53
2021/12/09 12:26:15;;;;;;;14.30;11.20;;;23.90;45.70;;;;;;214476;1311;25335;-54
2021/12/09 12:36:30;;;;;;;15.50;12.10;;;24.00;45.50;;;;;;214513;1313;24320;-53
2021/12/09 12:42:08;;;;;;;17.90;11.70;;;24.10;45.50;;;;;;214467;1313;25419;-53
2021/12/09 12:47:41;;;;;;;15.90;11.60;;;24.20;45.10;;;;;;214463;1314;24323;-51
2021/12/09 12:52:45;;;;;;;14.30;11.50;;;24.10;45.20;;;;;;214545;1313;24245;-53
2021/12/09 12:57:51;;;;;;;14.30;10.70;;;24.20;45.30;;;;;;214643;1313;22669;-51
2021/12/09 13:24:18;;;;;;;15.10;11.40;;;24.10;45.50;;;;;;214551;1313;26700;-53
2021/12/09 13:29:35;;;;;;;14.40;11.20;;;24.00;45.50;;;;;;214523;1313;22664;-52
2021/12/09 13:34:49;;;;;;;13.90;11.30;;;24.00;45.50;;;;;;214454;1315;25447;-51
2021/12/09 13:40:21;;;;;;;14.80;11.20;;;24.00;45.50;;;;;;214398;1316;22570;-56
2021/12/09 13:55:51;;;;;;;14.30;11.20;;;24.10;45.30;;;;;;214466;1313;25588;-54
2021/12/09 14:00:55;;;;;;;15.60;11.30;;;24.10;45.20;;;;;;214380;1314;25326;-56
2021/12/09 14:06:08;;;;;;;15.40;12.10;;;24.10;45.70;;;;;;214447;1314;25248;-53
2021/12/09 14:11:22;;;;;;;14.70;11.20;;;24.20;45.00;;;;;;214607;1313;25357;-55
2021/12/09 14:22:03;;;;;;;;;;;;;;;;;;;;;
2021/12/09 14:27:16;;;;;;;17.30;11.80;;;24.10;44.80;;;;;;214418;1314;24307;-54
2021/12/09 14:32:24;;;;;;;14.00;10.70;;;24.10;45.00;;;;;;214442;1314;23259;-54
2021/12/09 14:37:29;;;;;;;15.90;11.70;;;24.10;44.70;;;;;;214492;1316;22607;-54
2021/12/09 14:42:35;;;;;;;16.60;11.60;;;24.10;44.70;;;;;;214446;1315;26116;-54
2021/12/09 14:47:39;;;;;;;15.90;12.10;;;24.10;44.70;;;;;;214466;1316;22557;-53
2021/12/09 14:52:47;;;;;;;15.50;11.80;;;24.00;44.80;;;;;;214370;1315;25650;-53
2021/12/09 14:58:09;;;;;;;14.50;11.20;;;24.00;44.80;;;;;;214395;1314;22811;-55
2021/12/09 15:03:15;;;;;;;16.00;12.30;;;24.10;44.90;;;;;;214384;1314;22626;-54
2021/12/09 15:08:22;;;;;;;15.50;11.60;;;24.00;44.80;;;;;;214468;1312;22552;-55
2021/12/09 15:13:40;;;;;;;16.90;12.40;;;24.00;44.70;;;;;;214431;1313;22615;-52
2021/12/09 15:18:47;;;;;;;18.20;12.20;;;24.00;44.50;;;;;;214628;1313;22716;-55
2021/12/09 15:23:53;;;;;;;16.80;12.20;;;24.10;44.50;;;;;;214599;1313;25369;-55
2021/12/09 15:29:20;;;;;;;16.20;12.20;;;24.10;44.50;;;;;;214392;1313;25540;-53
2021/12/09 15:34:27;;;;;;;18.00;13.50;;;24.20;44.60;;;;;;214463;1313;22644;-53
2021/12/09 15:39:33;;;;;;;16.70;12.30;;;24.20;44.10;;;;;;214488;1314;22586;-52
2021/12/09 15:44:44;;;;;;;16.00;11.30;;;24.20;44.10;;;;;;214524;1313;22618;-52
2021/12/09 15:49:53;;;;;;;;;;;24.10;44.30;;;;;;214475;1313;24257;-51
2021/12/09 15:55:01;;;;;;;15.90;12.50;;;24.10;44.30;;;;;;214457;1313;22576;-52
2021/12/09 16:00:12;;;;;;;17.10;12.60;;;24.10;44.10;;;;;;214475;1311;160689;-55
2021/12/09 16:05:18;;;;;;;16.70;12.20;;;24.10;44.10;;;;;;214376;1315;24790;-52
2021/12/09 16:10:22;;;;;;;15.30;12.40;;;24.10;44.10;;;;;;214456;1314;24140;-52
2021/12/09 16:15:26;;;;;;;17.50;13.30;;;24.10;44.60;;;;;;214671;1313;24336;-54
2021/12/09 16:20:36;;;;;;;17.70;13.00;;;24.10;44.20;;;;;;214279;1307;25249;-53
2021/12/09 16:25:44;;;;;;;22.40;13.10;;;24.00;44.00;;;;;;214372;1306;24299;-51
2021/12/09 16:30:52;;;;;;;23.00;12.90;;;24.00;44.10;;;;;;214132;1306;22613;-55
2021/12/09 16:35:59;;;;;;;20.80;13.80;;;24.10;44.30;;;;;;213902;1306;22573;-53
2021/12/09 16:41:06;;;;;;;27.30;14.40;;;24.30;44.20;;;;;;214136;1306;22580;-55
2021/12/09 16:46:10;;;;;;;19.30;13.20;;;24.40;44.40;;;;;;214694;1309;22571;-54
2021/12/09 16:51:19;;;;;;;22.00;13.80;;;24.40;45.30;;;;;;214161;1306;22601;-52
2021/12/09 17:01:42;;;;;;;25.30;15.60;;;24.10;47.40;;;;;;214199;1306;22583;-54
2021/12/09 17:06:48;;;;;;;22.40;14.20;;;23.90;47.90;;;;;;214395;1307;23334;-52
2021/12/09 17:11:56;;;;;;;20.00;13.00;;;23.90;48.70;;;;;;214276;1313;22567;-55
2021/12/09 17:17:03;;;;;;;28.20;13.50;;;23.70;49.50;;;;;;214609;1314;25319;-53
2021/12/09 17:22:10;;;;;;;20.90;13.10;;;23.60;50.30;;;;;;214261;1306;22655;-52
2021/12/09 17:27:14;;;;;;;21.30;13.40;;;23.50;50.80;;;;;;214032;1306;22652;-51
2021/12/09 17:32:17;;;;;;;22.20;12.90;;;23.30;51.00;;;;;;214196;1306;22567;-53
2021/12/09 17:37:21;;;;;;;20.30;13.90;;;23.20;51.30;;;;;;214114;1309;22634;-52
2021/12/09 17:42:25;;;;;;;26.90;16.00;;;23.10;51.90;;;;;;214012;1309;22775;-56
2021/12/09 17:47:29;;;;;;;26.30;15.20;;;23.10;50.70;;;;;;214244;1306;22590;-54
2021/12/09 17:53:08;;;;;;;26.80;15.60;;;23.00;50.10;;;;;;213673;1306;23213;-56
2021/12/09 17:58:07;;;;;;;26.10;15.30;;;23.00;50.30;;;;;;214498;1306;25492;-54
2021/12/09 18:03:11;;;;;;;28.80;16.60;;;22.90;50.20;;;;;;214486;1315;24219;-53
2021/12/09 18:08:18;;;;;;;30.30;17.60;;;22.80;50.70;;;;;;214485;1309;22795;-53
2021/12/09 18:13:41;;;;;;;26.40;17.30;;;22.80;50.60;;;;;;214112;1309;22664;-56
2021/12/09 18:18:54;;;;;;;30.30;18.40;;;22.70;50.80;;;;;;214285;1306;23099;-54
2021/12/09 18:23:58;;;;;;;29.00;18.60;;;22.70;50.40;;;;;;213945;1309;22728;-55
2021/12/09 18:29:04;;;;;;;30.80;19.00;;;22.60;50.50;;;;;;214340;1309;22659;-56
2021/12/09 18:34:14;;;;;;;28.80;18.00;;;22.60;50.90;;;;;;214010;1309;22571;-55
2021/12/09 18:39:24;;;;;;;28.00;18.40;;;22.60;50.60;;;;;;213938;1310;22602;-54
2021/12/09 18:44:28;;;;;;;29.70;18.60;;;22.60;50.40;;;;;;213807;1306;22634;-56
2021/12/09 18:49:32;;;;;;;33.00;19.00;;;22.60;50.30;;;;;;213999;1307;22644;-53
2021/12/09 18:54:40;;;;;;;28.90;19.40;;;22.50;50.40;;;;;;214380;1306;22640;-56
2021/12/09 18:59:46;;;;;;;26.30;18.90;;;22.40;50.20;;;;;;214419;1306;22643;-53
2021/12/09 19:04:51;;;;;;;32.50;20.10;;;22.40;50.20;;;;;;214482;1309;22587;-52
2021/12/09 19:09:56;;;;;;;33.00;20.10;;;22.50;49.90;;;;;;214524;1306;25325;-53
2021/12/09 19:15:14;;;;;;;33.90;21.50;;;22.40;50.10;;;;;;214433;1306;22585;-56
2021/12/09 19:20:25;;;;;;;34.20;20.70;;;22.40;50.10;;;;;;214454;1306;22734;-56
2021/12/09 19:25:34;;;;;;;31.10;20.40;;;22.30;49.80;;;;;;214490;1307;22670;-55
2021/12/09 19:30:58;;;;;;;34.50;21.40;;;22.30;49.60;;;;;;214470;1306;23122;-55
2021/12/09 19:36:22;;;;;;;29.80;19.90;;;22.30;49.60;;;;;;214473;1306;22597;-52
2021/12/09 19:41:28;;;;;;;37.50;22.10;;;22.20;49.10;;;;;;214497;1306;22567;-56
2021/12/09 19:46:36;;;;;;;28.70;20.30;;;22.00;49.00;;;;;;214562;1306;25241;-55
2021/12/09 19:51:41;;;;;;;28.90;19.20;;;22.00;49.10;;;;;;214413;1307;22559;-55
2021/12/09 19:56:48;;;;;;;36.30;21.30;;;21.90;49.40;;;;;;214587;1306;25367;-57
2021/12/09 20:01:52;;;;;;;40.20;21.90;;;22.00;50.30;;;;;;214578;1310;25661;-55
2021/12/09 20:06:56;;;;;;;32.10;20.50;;;22.10;49.20;;;;;;214768;1313;25404;-53
2021/12/09 20:12:01;;;;;;;31.90;21.50;;;22.00;49.50;;;;;;214495;1306;22578;-55
2021/12/09 20:17:06;;;;;;;31.60;20.50;;;22.20;49.10;;;;;;214478;1309;25679;-53
2021/12/09 20:22:10;;;;;;;34.80;20.70;;;22.50;48.50;;;;;;214574;1309;22560;-54
2021/12/09 20:27:16;;;;;;;33.90;19.60;;;22.60;48.20;;;;;;214127;1306;25381;-56
2021/12/09 20:32:25;;;;;;;37.40;21.40;;;22.80;49.30;;;;;;214023;1306;25447;-55
2021/12/09 20:37:30;;;;;;;37.10;20.40;;;23.10;50.40;;;;;;214190;1309;22778;-52
2021/12/09 20:42:38;;;;;;;36.40;20.10;;;23.20;49.60;;;;;;214164;1306;26830;-54
2021/12/09 20:47:47;;;;;;;36.30;20.20;;;23.40;49.40;;;;;;214383;1306;22726;-54
2021/12/09 20:52:51;;;;;;;28.50;20.60;;;23.50;49.00;;;;;;214125;1306;22577;-54
2021/12/09 20:58:08;;;;;;;28.50;19.10;;;23.40;48.80;;;;;;214390;1307;24301;-52
2021/12/09 21:03:35;;;;;;;31.00;19.20;;;23.30;48.80;;;;;;214335;1306;22866;-55
2021/12/09 21:08:42;;;;;;;28.60;19.10;;;23.40;48.70;;;;;;214450;1311;24250;-54
2021/12/09 21:13:48;;;;;;;31.50;20.20;;;23.50;48.60;;;;;;214458;1306;25620;-54
2021/12/09 21:18:53;;;;;;;32.70;19.20;;;23.50;48.20;;;;;;214363;1310;22637;-55
2021/12/09 21:23:57;;;;;;;30.90;19.60;;;23.60;50.30;;;;;;214515;1313;22761;-52
2021/12/09 21:29:04;;;;;;;28.80;19.40;;;23.80;50.00;;;;;;214289;1306;24293;-51
2021/12/09 21:34:11;;;;;;;31.80;20.40;;;23.90;49.60;;;;;;214294;1306;26828;-52
2021/12/09 21:39:17;;;;;;;30.20;20.20;;;23.90;49.70;;;;;;214144;1310;22571;-52
2021/12/09 21:44:21;;;;;;;31.60;20.10;;;23.80;49.60;;;;;;214218;1306;24312;-55
2021/12/09 21:49:34;;;;;;;31.90;19.90;;;23.80;49.30;;;;;;214140;1309;22564;-55
2021/12/09 21:54:37;;;;;;;30.80;20.00;;;23.80;49.10;;;;;;214124;1307;23284;-55
2021/12/09 21:59:44;;;;;;;27.40;19.20;;;24.00;49.30;;;;;;214104;1306;22567;-52
2021/12/09 22:04:47;;;;;;;29.70;20.50;;;23.90;49.10;;;;;;214141;1306;22670;-53
2021/12/09 22:09:52;;;;;;;26.10;19.50;;;23.90;49.80;;;;;;213594;1309;22590;-55
2021/12/09 22:14:55;;;;;;;31.40;19.80;;;23.80;49.40;;;;;;214191;1306;25539;-53
2021/12/09 22:20:02;;;;;;;27.40;19.30;;;23.80;49.40;;;;;;214293;1309;22597;-55
2021/12/09 22:25:08;;;;;;;27.60;19.10;;;23.70;49.60;;;;;;214136;1309;27171;-53
2021/12/09 22:30:14;;;;;;;29.50;19.20;;;23.60;50.00;;;;;;214244;1307;24271;-52
2021/12/09 22:35:18;;;;;;;27.70;20.10;;;23.60;50.50;;;;;;214225;1306;22590;-54
2021/12/09 22:40:22;;;;;;;26.50;18.30;;;23.50;50.30;;;;;;214296;1309;22724;-52
2021/12/09 22:45:28;;;;;;;27.90;19.10;;;23.40;50.70;;;;;;214621;1310;22716;-52
2021/12/09 22:50:32;;;;;;;28.70;18.90;;;23.20;51.00;;;;;;217089;1306;22635;-53
2021/12/09 22:55:37;;;;;;;27.60;19.50;;;23.10;52.30;;;;;;214413;1306;25325;-55
2021/12/09 23:00:44;;;;;;;29.10;19.30;;;23.00;52.10;;;;;;214701;1311;24441;-55
2021/12/09 23:05:52;;;;;;;27.70;19.30;;;22.90;51.50;;;;;;214564;1314;22635;-54
2021/12/09 23:10:57;;;;;;;25.80;17.60;;;22.80;52.00;;;;;;214428;1314;24321;-52
2021/12/09 23:16:12;;;;;;;27.40;18.30;;;22.70;51.80;;;;;;214624;1314;22720;-51
2021/12/09 23:21:17;;;;;;;25.30;19.30;;;22.60;51.90;;;;;;214548;1316;22584;-54
2021/12/09 23:26:21;;;;;;;27.70;17.20;;;22.60;51.80;;;;;;214605;1310;24338;-54
2021/12/09 23:31:25;;;;;;;29.10;18.10;;;22.50;51.60;;;;;;214586;1313;22564;-51
2021/12/09 23:36:36;;;;;;;26.20;18.30;;;22.50;51.60;;;;;;214556;1314;25342;-53
2021/12/09 23:41:42;;;;;;;25.80;18.60;;;22.40;51.60;;;;;;214504;1313;22577;-54
2021/12/09 23:46:47;;;;;;;24.80;16.50;;;22.30;51.60;;;;;;214480;1314;22855;-53
2021/12/09 23:51:54;;;;;;;24.10;17.60;;;22.20;51.60;;;;;;214549;1313;24043;-52
2021/12/09 23:56:59;;;;;;;25.80;18.30;;;22.10;52.00;;;;;;214131;1311;387226;-54
